createdAt,value
2019-02-12T00:00:00.653Z,86.39
2019-02-12T00:02:28.298Z,86.01
2019-02-12T00:04:55.821Z,85.71
2019-02-12T00:07:23.961Z,86.10
2019-02-12T00:09:51.349Z,85.93
2019-02-12T00:12:18.637Z,86.10
2019-02-12T00:14:46.124Z,86.80
2019-02-12T00:17:14.111Z,86.08
2019-02-12T00:19:42.534Z,86.64
2019-02-12T00:22:10.305Z,86.67
2019-02-12T00:24:38.152Z,86.76
2019-02-12T00:27:05.917Z,86.57
2019-02-12T00:29:33.265Z,86.36
2019-02-12T00:32:00.727Z,86.66
2019-02-12T00:34:28.019Z,87.17
2019-02-12T00:36:55.458Z,86.95
2019-02-12T00:39:23.527Z,86.72
2019-02-12T00:41:51.342Z,87.16
2019-02-12T00:44:18.618Z,86.98
2019-02-12T00:46:45.999Z,86.98
2019-02-12T00:49:13.834Z,86.43
2019-02-12T00:51:42.174Z,87.00
2019-02-12T00:54:09.961Z,86.66
2019-02-12T00:56:37.175Z,86.36
2019-02-12T00:59:05.152Z,86.30
2019-02-12T01:01:32.691Z,86.43
2019-02-12T01:04:02.034Z,86.59
2019-02-12T01:06:29.619Z,86.42
2019-02-12T01:08:57.390Z,86.19
2019-02-12T01:11:24.967Z,86.41
2019-02-12T01:13:53.383Z,86.54
2019-02-12T01:16:20.766Z,86.27
2019-02-12T01:18:48.380Z,86.63
2019-02-12T01:21:15.817Z,86.69
2019-02-12T01:23:43.220Z,86.09
2019-02-12T01:26:10.614Z,86.39
2019-02-12T01:28:38.160Z,86.41
2019-02-12T01:31:05.959Z,85.32
2019-02-12T01:33:33.440Z,85.38
2019-02-12T01:36:01.196Z,85.29
2019-02-12T01:38:28.458Z,83.62
2019-02-12T01:40:55.944Z,84.74
2019-02-12T01:43:23.204Z,84.70
2019-02-12T01:45:50.779Z,84.93
2019-02-12T01:48:18.248Z,84.69
2019-02-12T01:50:46.386Z,85.31
2019-02-12T01:53:13.573Z,84.49
2019-02-12T01:55:41.118Z,83.57
2019-02-12T01:58:09.118Z,83.67
2019-02-12T02:00:37.170Z,82.46
2019-02-12T02:03:04.991Z,82.91
2019-02-12T02:05:32.365Z,83.35
2019-02-12T02:07:59.584Z,83.06
2019-02-12T02:10:27.355Z,81.38
2019-02-12T02:12:55.039Z,82.81
2019-02-12T02:15:22.297Z,82.20
2019-02-12T02:17:50.251Z,83.16
2019-02-12T02:20:18.461Z,83.19
2019-02-12T02:22:45.986Z,82.21
2019-02-12T02:25:14.007Z,82.98
2019-02-12T02:27:41.415Z,83.14
2019-02-12T02:30:10.780Z,82.81
2019-02-12T02:32:38.044Z,82.96
2019-02-12T02:35:05.618Z,81.50
2019-02-12T02:37:33.096Z,83.06
2019-02-12T02:40:00.709Z,82.54
2019-02-12T02:42:28.051Z,82.94
2019-02-12T02:44:55.513Z,83.98
2019-02-12T02:47:23.121Z,82.24
2019-02-12T02:49:51.198Z,83.03
2019-02-12T02:52:19.165Z,81.58
2019-02-12T02:54:46.831Z,81.01
2019-02-12T02:57:14.688Z,82.00
2019-02-12T02:59:42.311Z,82.67
2019-02-12T03:02:10.270Z,82.68
2019-02-12T03:04:37.580Z,82.66
2019-02-12T03:07:05.886Z,83.94
2019-02-12T03:09:33.582Z,83.40
2019-02-12T03:12:01.141Z,82.06
2019-02-12T03:14:28.284Z,81.75
2019-02-12T03:16:55.789Z,83.61
2019-02-12T03:19:23.074Z,82.86
2019-02-12T03:21:50.889Z,83.56
2019-02-12T03:24:18.468Z,83.24
2019-02-12T03:26:46.102Z,83.00
2019-02-12T03:29:13.624Z,83.52
2019-02-12T03:31:42.985Z,83.38
2019-02-12T03:34:11.438Z,84.16
2019-02-12T03:36:39.159Z,83.87
2019-02-12T03:39:06.919Z,83.96
2019-02-12T03:41:34.156Z,83.02
2019-02-12T03:44:01.999Z,84.34
2019-02-12T03:46:30.310Z,82.62
2019-02-12T03:48:57.985Z,83.70
2019-02-12T03:51:26.007Z,82.24
2019-02-12T03:53:53.428Z,83.22
2019-02-12T03:56:21.405Z,83.21
2019-02-12T03:58:49.091Z,83.07
2019-02-12T04:01:16.574Z,82.61
2019-02-12T04:03:45.220Z,82.30
2019-02-12T04:06:12.684Z,82.61
2019-02-12T04:08:40.271Z,80.74
2019-02-12T04:11:07.655Z,80.10
2019-02-12T04:13:35.415Z,82.48
2019-02-12T04:16:02.927Z,80.75
2019-02-12T04:18:30.499Z,81.99
2019-02-12T04:20:58.739Z,80.99
2019-02-12T04:23:27.029Z,80.53
2019-02-12T04:25:54.890Z,81.70
2019-02-12T04:28:22.267Z,80.28
2019-02-12T04:30:49.550Z,80.86
2019-02-12T04:33:17.336Z,81.95
2019-02-12T04:35:45.108Z,80.72
2019-02-12T04:38:12.776Z,79.80
2019-02-12T04:40:40.435Z,79.85
2019-02-12T04:43:08.411Z,79.25
2019-02-12T04:45:35.672Z,80.23
2019-02-12T04:48:03.184Z,77.99
2019-02-12T04:50:30.934Z,77.90
2019-02-12T04:52:58.575Z,78.98
2019-02-12T04:55:26.247Z,77.72
2019-02-12T04:57:53.559Z,78.90
2019-02-12T05:00:21.266Z,79.79
2019-02-12T05:02:48.807Z,78.99
2019-02-12T05:05:16.499Z,80.18
2019-02-12T05:07:43.757Z,78.91
2019-02-12T05:10:13.849Z,79.38
2019-02-12T05:12:41.283Z,80.43
2019-02-12T05:15:09.069Z,79.63
2019-02-12T05:17:36.776Z,80.38
2019-02-12T05:20:07.361Z,78.66
2019-02-12T05:22:43.238Z,78.50
2019-02-12T05:25:05.338Z,79.92
2019-02-12T05:27:33.325Z,78.87
2019-02-12T05:30:00.868Z,80.00
2019-02-12T05:32:29.131Z,79.33
2019-02-12T05:34:57.156Z,78.76
2019-02-12T05:37:24.658Z,80.62
2019-02-12T05:39:52.330Z,79.03
2019-02-12T05:42:20.008Z,78.99
2019-02-12T05:44:47.537Z,80.60
2019-02-12T05:47:14.918Z,79.93
2019-02-12T05:49:42.509Z,79.12
2019-02-12T05:52:09.892Z,78.94
2019-02-12T05:54:37.344Z,80.43
2019-02-12T05:57:05.100Z,81.00
2019-02-12T05:59:32.482Z,79.32
2019-02-12T06:01:59.612Z,78.73
2019-02-12T06:04:26.913Z,80.05
2019-02-12T06:06:54.852Z,79.03
2019-02-12T06:09:22.166Z,80.32
2019-02-12T06:11:49.693Z,78.78
2019-02-12T06:14:17.302Z,78.24
2019-02-12T06:16:44.763Z,80.53
2019-02-12T06:19:12.169Z,80.62
2019-02-12T06:21:39.447Z,80.62
2019-02-12T06:24:07.195Z,79.60
2019-02-12T06:26:35.714Z,79.61
2019-02-12T06:29:03.308Z,80.82
2019-02-12T06:31:30.531Z,79.88
2019-02-12T06:33:57.973Z,80.78
2019-02-12T06:36:25.254Z,80.18
2019-02-12T06:38:53.332Z,79.13
2019-02-12T06:41:21.355Z,80.55
2019-02-12T06:43:49.091Z,79.13
2019-02-12T06:46:16.824Z,81.17
2019-02-12T06:48:44.010Z,81.32
2019-02-12T06:51:11.277Z,80.83
2019-02-12T06:53:39.031Z,81.80
2019-02-12T06:56:06.419Z,79.66
2019-02-12T06:58:34.005Z,81.14
2019-02-12T07:01:01.686Z,81.68
2019-02-12T07:04:03.908Z,81.95
2019-02-12T07:07:28.668Z,81.22
2019-02-12T07:10:08.242Z,80.40
2019-02-12T07:13:16.330Z,81.43
2019-02-12T07:16:08.941Z,79.99
2019-02-12T07:19:29.885Z,80.23
2019-02-12T07:22:45.073Z,80.47
2019-02-12T07:25:58.070Z,78.32
2019-02-12T07:29:27.394Z,79.27
2019-02-12T07:32:53.609Z,78.93
2019-02-12T07:35:54.436Z,79.68
2019-02-12T07:39:24.935Z,79.53
2019-02-12T07:42:38.821Z,79.00
2019-02-12T07:45:58.414Z,79.72
2019-02-12T07:49:02.245Z,79.80
2019-02-12T07:52:21.759Z,78.68
2019-02-12T07:55:46.644Z,78.30
2019-02-12T07:59:05.474Z,78.61
2019-02-12T08:02:20.811Z,80.38
2019-02-12T08:05:28.643Z,80.26
2019-02-12T08:08:36.763Z,78.84
2019-02-12T08:11:24.525Z,79.02
2019-02-12T08:14:25.033Z,80.24
2019-02-12T08:17:59.573Z,77.92
2019-02-12T08:21:14.565Z,80.54
2019-02-12T08:24:58.859Z,79.77
2019-02-12T08:28:33.774Z,80.34
2019-02-12T08:32:01.907Z,80.77
2019-02-12T08:35:09.354Z,79.23
2019-02-12T08:38:20.443Z,78.72
2019-02-12T08:41:46.945Z,79.30
2019-02-12T08:44:46.781Z,77.62
2019-02-12T08:47:39.183Z,78.81
2019-02-12T08:50:50.559Z,80.08
2019-02-12T08:53:58.983Z,79.02
2019-02-12T08:57:18.247Z,78.02
2019-02-12T09:00:15.553Z,77.79
2019-02-12T09:03:33.170Z,76.88
2019-02-12T09:07:02.333Z,76.95
2019-02-12T09:10:36.542Z,77.05
2019-02-12T09:14:06.822Z,77.37
2019-02-12T09:17:41.823Z,75.99
2019-02-12T09:21:05.561Z,77.32
2019-02-12T09:24:10.794Z,77.09
2019-02-12T09:27:48.781Z,76.78
2019-02-12T09:31:33.642Z,75.83
2019-02-12T09:35:12.223Z,75.24
2019-02-12T09:38:46.302Z,78.76
2019-02-12T09:41:36.532Z,74.81
2019-02-12T09:44:52.660Z,74.55
2019-02-12T09:48:06.623Z,73.65
2019-02-12T09:51:24.136Z,73.34
2019-02-12T09:54:43.509Z,74.63
2019-02-12T09:57:54.471Z,72.00
2019-02-12T10:00:50.800Z,74.81
2019-02-12T10:04:31.530Z,73.78
2019-02-12T10:07:29.266Z,73.06
2019-02-12T10:10:20.410Z,72.51
2019-02-12T10:13:42.437Z,73.13
2019-02-12T10:16:43.280Z,72.08
2019-02-12T10:19:30.202Z,71.51
2019-02-12T10:23:06.192Z,72.05
2019-02-12T10:25:38.000Z,71.36
2019-02-12T10:29:09.214Z,71.31
2019-02-12T10:31:42.304Z,70.75
2019-02-12T10:34:11.042Z,70.00
2019-02-12T10:36:38.701Z,70.61
2019-02-12T10:39:11.542Z,67.25
2019-02-12T10:41:39.002Z,69.64
2019-02-12T10:44:06.609Z,71.52
2019-02-12T10:46:34.632Z,70.00
2019-02-12T10:49:02.129Z,72.04
2019-02-12T10:51:30.485Z,66.46
2019-02-12T10:53:58.101Z,69.44
2019-02-12T10:56:26.183Z,66.34
2019-02-12T10:58:54.056Z,69.39
2019-02-12T11:01:21.314Z,69.40
2019-02-12T11:03:48.874Z,68.17
2019-02-12T11:06:16.112Z,65.96
2019-02-12T11:08:44.001Z,66.43
2019-02-12T11:11:11.612Z,65.55
2019-02-12T11:13:41.214Z,67.64
2019-02-12T11:16:08.598Z,66.42
2019-02-12T11:18:36.254Z,64.91
2019-02-12T11:21:11.540Z,67.42
2019-02-12T11:23:33.527Z,65.30
2019-02-12T11:26:01.167Z,66.57
2019-02-12T11:28:29.283Z,67.08
2019-02-12T11:30:57.047Z,63.02
2019-02-12T11:33:25.032Z,64.24
2019-02-12T11:35:52.733Z,64.75
2019-02-12T11:38:20.644Z,64.66
2019-02-12T11:40:48.218Z,63.34
2019-02-12T11:43:15.519Z,65.67
2019-02-12T11:45:42.744Z,65.76
2019-02-12T11:48:10.413Z,64.24
2019-02-12T11:50:37.655Z,63.54
2019-02-12T11:53:05.835Z,64.13
2019-02-12T11:55:36.852Z,64.82
2019-02-12T11:58:04.426Z,63.83
2019-02-12T12:00:38.287Z,62.40
2019-02-12T12:03:05.892Z,61.64
2019-02-12T12:05:34.018Z,62.19
2019-02-12T12:08:01.848Z,60.07
2019-02-12T12:10:29.594Z,63.03
2019-02-12T12:12:57.733Z,62.41
2019-02-12T12:15:25.189Z,63.11
2019-02-12T12:17:52.682Z,63.24
2019-02-12T12:20:21.308Z,58.66
2019-02-12T12:22:49.362Z,61.64
2019-02-12T12:25:19.161Z,58.82
2019-02-12T12:27:47.435Z,61.06
2019-02-12T12:30:15.342Z,59.82
2019-02-12T12:32:43.044Z,61.37
2019-02-12T12:35:11.277Z,59.32
2019-02-12T12:37:38.812Z,61.44
2019-02-12T12:40:06.727Z,59.85
2019-02-12T12:42:34.249Z,58.02
2019-02-12T12:45:05.134Z,65.48
2019-02-12T12:47:32.753Z,58.90
2019-02-12T12:50:00.337Z,57.98
2019-02-12T12:52:27.889Z,56.40
2019-02-12T12:54:59.902Z,57.83
2019-02-12T12:57:26.882Z,55.95
2019-02-12T12:59:54.969Z,61.12
2019-02-12T13:02:22.634Z,57.91
2019-02-12T13:04:50.071Z,56.93
2019-02-12T13:07:17.356Z,55.49
2019-02-12T13:09:44.709Z,57.21
2019-02-12T13:12:12.256Z,62.95
2019-02-12T13:14:40.318Z,56.94
2019-02-12T13:17:07.942Z,58.36
2019-02-12T13:19:35.164Z,56.49
2019-02-12T13:22:03.030Z,56.86
2019-02-12T13:24:30.297Z,58.83
2019-02-12T13:26:58.655Z,57.01
2019-02-12T13:29:25.915Z,55.74
2019-02-12T13:31:57.004Z,57.85
2019-02-12T13:34:24.666Z,58.62
2019-02-12T13:36:52.438Z,57.51
2019-02-12T13:39:20.126Z,57.60
2019-02-12T13:41:47.672Z,57.10
2019-02-12T13:44:15.069Z,56.45
2019-02-12T13:46:42.648Z,55.39
2019-02-12T13:49:10.514Z,57.15
2019-02-12T13:51:38.594Z,60.99
2019-02-12T13:54:06.094Z,55.71
2019-02-12T13:56:33.790Z,56.26
2019-02-12T13:59:01.672Z,55.78
2019-02-12T14:01:29.046Z,57.70
2019-02-12T14:03:57.245Z,60.07
2019-02-12T14:06:25.099Z,57.42
2019-02-12T14:08:52.279Z,56.40
2019-02-12T14:11:19.918Z,58.03
2019-02-12T14:13:48.123Z,56.70
2019-02-12T14:16:15.420Z,60.18
2019-02-12T14:18:43.281Z,58.60
2019-02-12T14:21:10.527Z,56.33
2019-02-12T14:23:37.682Z,56.35
2019-02-12T14:26:05.507Z,57.37
2019-02-12T14:28:32.928Z,56.43
2019-02-12T14:31:01.153Z,58.88
2019-02-12T14:33:28.542Z,55.97
2019-02-12T14:35:56.022Z,56.97
2019-02-12T14:38:23.785Z,57.73
2019-02-12T14:40:51.444Z,58.56
2019-02-12T14:43:19.249Z,58.06
2019-02-12T14:45:46.392Z,57.60
2019-02-12T14:48:13.767Z,58.07
2019-02-12T14:50:41.562Z,60.53
2019-02-12T14:53:09.717Z,58.00
2019-02-12T14:55:37.420Z,59.52
2019-02-12T14:58:04.847Z,59.41
2019-02-12T15:00:32.658Z,59.19
2019-02-12T15:03:00.115Z,57.88
2019-02-12T15:05:28.163Z,57.25
2019-02-12T15:07:55.969Z,58.74
2019-02-12T15:10:23.941Z,60.50
2019-02-12T15:12:51.624Z,60.90
2019-02-12T15:15:19.294Z,59.25
2019-02-12T15:17:46.886Z,60.50
2019-02-12T15:20:14.705Z,61.10
2019-02-12T15:22:41.950Z,59.07
2019-02-12T15:25:13.823Z,59.88
2019-02-12T15:27:41.258Z,60.01
2019-02-12T15:30:10.886Z,60.91
2019-02-12T15:32:38.382Z,61.70
2019-02-12T15:35:07.965Z,59.56
2019-02-12T15:37:35.885Z,59.85
2019-02-12T15:40:04.511Z,62.27
2019-02-12T15:42:32.365Z,59.94
2019-02-12T15:44:59.553Z,63.45
2019-02-12T15:47:27.502Z,62.99
2019-02-12T15:49:55.129Z,60.75
2019-02-12T15:52:22.327Z,61.25
2019-02-12T15:54:49.792Z,60.82
2019-02-12T15:57:16.904Z,60.59
2019-02-12T15:59:44.319Z,60.07
2019-02-12T16:02:13.598Z,60.13
2019-02-12T16:04:41.652Z,59.82
2019-02-12T16:07:08.894Z,61.33
2019-02-12T16:09:36.608Z,60.47
2019-02-12T16:12:06.002Z,61.58
2019-02-12T16:14:33.605Z,61.27
2019-02-12T16:17:00.899Z,61.47
2019-02-12T16:19:29.979Z,60.66
2019-02-12T16:21:58.492Z,61.44
2019-02-12T16:24:25.814Z,62.50
2019-02-12T16:26:53.613Z,62.53
2019-02-12T16:29:21.967Z,62.05
2019-02-12T16:31:49.660Z,61.68
2019-02-12T16:34:17.310Z,62.77
2019-02-12T16:36:45.170Z,61.81
2019-02-12T16:39:12.284Z,62.04
2019-02-12T16:41:39.680Z,61.56
2019-02-12T16:44:07.844Z,60.81
2019-02-12T16:46:35.822Z,61.72
2019-02-12T16:49:03.893Z,60.29
2019-02-12T16:51:31.556Z,60.11
2019-02-12T16:53:59.802Z,61.62
2019-02-12T16:56:27.623Z,61.31
2019-02-12T16:59:03.258Z,63.24
2019-02-12T17:01:25.345Z,62.86
2019-02-12T17:03:52.801Z,62.44
2019-02-12T17:06:20.333Z,61.03
2019-02-12T17:08:48.363Z,63.32
2019-02-12T17:11:16.024Z,64.21
2019-02-12T17:13:43.445Z,62.17
2019-02-12T17:16:14.030Z,63.03
2019-02-12T17:18:43.593Z,64.29
2019-02-12T17:21:12.231Z,62.10
2019-02-12T17:23:40.078Z,62.89
2019-02-12T17:26:16.099Z,61.26
2019-02-12T17:28:37.859Z,62.24
2019-02-12T17:31:05.230Z,63.11
2019-02-12T17:33:33.024Z,63.46
2019-02-12T17:36:00.789Z,61.97
2019-02-12T17:38:28.018Z,63.06
2019-02-12T17:40:56.225Z,62.99
2019-02-12T17:43:24.546Z,63.88
2019-02-12T17:45:51.798Z,64.00
2019-02-12T17:48:19.087Z,63.26
2019-02-12T17:50:46.331Z,64.48
2019-02-12T17:53:13.567Z,64.70
2019-02-12T17:55:41.353Z,64.22
2019-02-12T17:58:13.187Z,62.76
2019-02-12T18:00:43.312Z,64.29
2019-02-12T18:03:10.574Z,65.33
2019-02-12T18:05:38.234Z,64.26
2019-02-12T18:08:06.972Z,65.50
2019-02-12T18:10:34.710Z,64.44
2019-02-12T18:13:02.472Z,64.22
2019-02-12T18:15:29.776Z,63.00
2019-02-12T18:17:57.023Z,62.90
2019-02-12T18:20:26.635Z,62.38
2019-02-12T18:22:54.246Z,62.13
2019-02-12T18:25:21.822Z,62.97
2019-02-12T18:27:49.407Z,63.21
2019-02-12T18:30:16.994Z,62.80
2019-02-12T18:32:44.453Z,63.29
2019-02-12T18:35:12.245Z,63.12
2019-02-12T18:37:40.062Z,62.91
2019-02-12T18:40:09.486Z,61.47
2019-02-12T18:42:37.280Z,61.77
2019-02-12T18:45:06.971Z,61.72
2019-02-12T18:47:34.855Z,62.29
2019-02-12T18:50:02.691Z,62.76
2019-02-12T18:52:31.252Z,62.96
2019-02-12T18:54:58.870Z,65.23
2019-02-12T18:57:26.197Z,64.86
2019-02-12T18:59:53.974Z,65.06
2019-02-12T19:02:21.371Z,62.96
2019-02-12T19:04:48.805Z,64.74
2019-02-12T19:07:16.862Z,63.98
2019-02-12T19:09:44.142Z,64.04
2019-02-12T19:12:11.990Z,63.63
2019-02-12T19:14:39.672Z,63.33
2019-02-12T19:17:07.386Z,63.93
2019-02-12T19:19:34.567Z,65.67
2019-02-12T19:22:02.656Z,66.09
2019-02-12T19:24:30.142Z,65.80
2019-02-12T19:26:58.218Z,64.72
2019-02-12T19:29:25.938Z,64.71
2019-02-12T19:31:59.169Z,64.12
2019-02-12T19:34:23.406Z,63.45
2019-02-12T19:36:51.609Z,63.45
2019-02-12T19:39:19.123Z,64.28
2019-02-12T19:41:46.628Z,63.81
2019-02-12T19:44:14.033Z,65.32
2019-02-12T19:46:41.617Z,64.63
2019-02-12T19:49:09.050Z,64.66
2019-02-12T19:51:36.583Z,65.93
2019-02-12T19:54:04.316Z,66.35
2019-02-12T19:56:31.831Z,66.45
2019-02-12T19:58:59.332Z,66.82
2019-02-12T20:01:26.700Z,66.58
2019-02-12T20:03:54.771Z,66.99
2019-02-12T20:06:22.658Z,64.80
2019-02-12T20:08:50.198Z,66.71
2019-02-12T20:11:18.512Z,65.98
2019-02-12T20:13:45.630Z,64.67
2019-02-12T20:16:12.981Z,66.44
2019-02-12T20:18:40.518Z,67.29
2019-02-12T20:21:08.041Z,65.00
2019-02-12T20:23:35.373Z,64.13
2019-02-12T20:26:03.097Z,64.25
2019-02-12T20:28:30.806Z,64.13
2019-02-12T20:30:58.066Z,63.60
2019-02-12T20:33:25.630Z,63.69
2019-02-12T20:35:53.156Z,64.78
2019-02-12T20:38:20.629Z,64.08
2019-02-12T20:40:48.129Z,63.96
2019-02-12T20:43:16.224Z,63.78
2019-02-12T20:45:43.368Z,64.74
2019-02-12T20:48:17.638Z,64.56
2019-02-12T20:50:44.775Z,65.17
2019-02-12T20:53:11.978Z,65.26
2019-02-12T20:55:39.254Z,65.09
2019-02-12T20:58:06.996Z,65.82
2019-02-12T21:00:34.759Z,65.77
2019-02-12T21:03:02.270Z,65.34
2019-02-12T21:05:30.211Z,65.12
2019-02-12T21:07:57.630Z,66.10
2019-02-12T21:10:25.090Z,66.32
2019-02-12T21:12:52.722Z,67.79
2019-02-12T21:15:20.620Z,67.82
2019-02-12T21:17:48.306Z,66.48
2019-02-12T21:20:15.690Z,66.49
2019-02-12T21:22:43.189Z,69.03
2019-02-12T21:25:11.193Z,66.82
2019-02-12T21:27:38.434Z,67.55
2019-02-12T21:30:12.668Z,68.38
2019-02-12T21:32:41.043Z,68.38
2019-02-12T21:35:08.876Z,68.17
2019-02-12T21:37:36.618Z,67.90
2019-02-12T21:40:06.804Z,68.04
2019-02-12T21:42:36.415Z,68.71
2019-02-12T21:45:04.656Z,68.74
2019-02-12T21:47:32.310Z,68.96
2019-02-12T21:49:59.449Z,69.33
2019-02-12T21:52:27.453Z,69.76
2019-02-12T21:54:55.311Z,70.42
2019-02-12T21:57:22.509Z,70.09
2019-02-12T21:59:49.839Z,71.35
2019-02-12T22:02:17.702Z,70.04
2019-02-12T22:04:44.860Z,70.21
2019-02-12T22:07:12.859Z,70.62
2019-02-12T22:09:40.880Z,69.96
2019-02-12T22:12:08.714Z,69.20
2019-02-12T22:14:36.106Z,69.32
2019-02-12T22:17:08.939Z,69.90
2019-02-12T22:19:37.248Z,69.51
2019-02-12T22:22:04.992Z,69.88
2019-02-12T22:24:32.715Z,69.91
2019-02-12T22:26:59.878Z,69.91
2019-02-12T22:29:27.794Z,70.50
2019-02-12T22:31:55.498Z,70.98
2019-02-12T22:34:23.206Z,71.07
2019-02-12T22:36:51.045Z,70.71
2019-02-12T22:39:18.342Z,70.55
2019-02-12T22:41:46.088Z,71.72
2019-02-12T22:44:13.348Z,70.36
2019-02-12T22:46:40.528Z,70.45
2019-02-12T22:49:08.602Z,71.47
2019-02-12T22:51:36.249Z,70.40
2019-02-12T22:54:04.316Z,71.17
2019-02-12T22:56:31.728Z,70.29
2019-02-12T22:58:59.913Z,72.01
2019-02-12T23:01:38.475Z,71.80
2019-02-12T23:04:06.506Z,71.54
2019-02-12T23:06:33.902Z,71.94
2019-02-12T23:09:01.265Z,71.61
2019-02-12T23:11:28.664Z,71.31
2019-02-12T23:13:56.404Z,71.63
2019-02-12T23:16:23.673Z,71.27
2019-02-12T23:18:51.144Z,72.32
2019-02-12T23:21:18.484Z,72.13
2019-02-12T23:23:45.641Z,71.87
2019-02-12T23:26:13.174Z,72.96
2019-02-12T23:28:40.970Z,73.89
2019-02-12T23:31:08.637Z,72.87
2019-02-12T23:33:36.497Z,73.15
2019-02-12T23:36:04.422Z,73.63
2019-02-12T23:38:31.808Z,73.48
2019-02-12T23:40:59.095Z,73.73
2019-02-12T23:43:26.863Z,74.03
2019-02-12T23:45:54.092Z,73.72
2019-02-12T23:48:22.171Z,73.15
2019-02-12T23:50:49.786Z,72.82
2019-02-12T23:53:17.339Z,73.29
2019-02-12T23:55:44.870Z,73.86
2019-02-12T23:58:12.271Z,73.60
